Time;durP1;ratioP1;P1;durP2;ratioP2;P2;SDS_P1;SDS_P2;PMS_P1;PMS_P2;Temp;Humidity;BMP_temperature;BMP_pressure;BME280_temperature;BME280_humidity;BME280_pressure;Samples;Min_cycle;Max_cycle;Signal;HPM_P1;HPM_P2
2023/03/30 05:24:53;;;;;;;24.25;4.03;;;14.90;74.10;;;;;;5782572;24;20653;-73
2023/03/30 05:27:19;;;;;;;18.48;3.60;;;15.10;74.40;;;;;;4858459;29;20054;-77
2023/03/30 05:29:45;;;;;;;14.63;3.33;;;15.10;73.50;;;;;;4866078;29;20067;-75
2023/03/30 05:32:13;;;;;;;17.00;3.40;;;15.10;74.10;;;;;;4866003;29;20056;-79
2023/03/30 05:34:39;;;;;;;16.15;3.28;;;15.10;74.40;;;;;;4845907;29;20045;-80
2023/03/30 05:37:22;;;;;;;24.80;3.58;;;15.20;74.60;;;;;;4862164;29;20052;-80
2023/03/30 05:39:54;;;;;;;16.25;3.05;;;15.30;75.00;;;;;;4828412;29;20057;-77
2023/03/30 05:42:48;;;;;;;19.85;3.22;;;15.30;74.70;;;;;;4811172;29;20177;-81
2023/03/30 05:45:16;;;;;;;21.65;3.45;;;15.40;75.00;;;;;;4822954;29;20044;-81
2023/03/30 05:47:59;;;;;;;25.20;3.70;;;15.40;75.00;;;;;;4833988;29;20065;-80
2023/03/30 05:50:34;;;;;;;18.90;3.60;;;15.50;75.30;;;;;;4811357;29;20057;-80
2023/03/30 05:53:02;;;;;;;17.55;3.05;;;15.50;75.30;;;;;;4826521;29;20287;-79
2023/03/30 05:55:31;;;;;;;24.38;3.38;;;15.60;75.50;;;;;;4810597;29;20094;-78
2023/03/30 05:58:00;;;;;;;25.88;3.90;;;15.60;75.60;;;;;;4842113;29;20129;-78
2023/03/30 06:00:32;;;;;;;21.38;4.05;;;15.70;75.60;;;;;;4845120;29;20052;-80
2023/03/30 06:06:35;;;;;;;35.38;4.82;;;15.90;75.70;;;;;;4806638;29;20049;-81
2023/03/30 06:09:13;;;;;;;25.57;3.67;;;16.00;75.60;;;;;;4835209;29;20117;-81
2023/03/30 06:11:55;;;;;;;37.55;5.50;;;16.10;75.40;;;;;;4849344;29;20045;-80
2023/03/30 06:14:21;;;;;;;32.72;4.03;;;16.10;75.30;;;;;;4831892;29;20366;-80
2023/03/30 06:16:46;;;;;;;23.80;4.00;;;16.10;75.30;;;;;;4849101;29;20129;-81
2023/03/30 06:19:13;;;;;;;27.83;4.57;;;16.10;75.10;;;;;;4850124;29;20092;-79
2023/03/30 06:21:39;;;;;;;26.13;3.72;;;16.10;74.90;;;;;;4834087;29;20042;-81
2023/03/30 06:24:05;;;;;;;19.27;4.25;;;16.10;74.60;;;;;;4833345;29;20042;-79
2023/03/30 06:26:31;;;;;;;24.35;4.03;;;16.10;74.40;;;;;;4832888;29;20057;-79
2023/03/30 06:28:56;;;;;;;18.15;2.78;;;16.00;74.20;;;;;;4848945;29;20136;-81
2023/03/30 06:31:23;;;;;;;16.58;2.90;;;16.00;74.00;;;;;;4849075;29;20057;-81
2023/03/30 06:33:50;;;;;;;16.40;3.50;;;16.00;74.40;;;;;;4833533;29;20130;-79
2023/03/30 06:36:16;;;;;;;15.60;2.75;;;16.00;73.70;;;;;;4834031;29;20044;-82
2023/03/30 06:38:42;;;;;;;18.00;3.10;;;15.90;73.50;;;;;;4863565;29;20040;-79
2023/03/30 06:41:10;;;;;;;15.85;3.00;;;15.90;73.30;;;;;;4867743;29;20064;-81
2023/03/30 06:43:37;;;;;;;12.43;2.85;;;15.90;73.10;;;;;;4838969;29;20128;-79
2023/03/30 06:46:03;;;;;;;14.65;2.65;;;15.90;73.00;;;;;;4846365;29;20069;-80
2023/03/30 06:48:29;;;;;;;18.80;3.10;;;15.90;72.90;;;;;;4815749;29;20060;-81
2023/03/30 06:50:55;;;;;;;12.82;2.70;;;15.90;72.80;;;;;;4830463;29;20050;-80
2023/03/30 06:53:22;;;;;;;12.75;2.85;;;15.90;72.60;;;;;;4845509;29;20042;-81
2023/03/30 06:55:56;;;;;;;12.15;2.65;;;15.80;72.40;;;;;;4829986;29;20125;-82
2023/03/30 06:58:47;;;;;;;17.30;3.00;;;15.80;72.30;;;;;;4846198;29;20120;-79
2023/03/30 07:01:37;;;;;;;8.00;2.63;;;15.80;72.40;;;;;;4832813;29;20046;-78
2023/03/30 07:04:09;;;;;;;14.65;2.75;;;15.80;72.20;;;;;;4826076;29;20097;-76
2023/03/30 07:06:34;;;;;;;15.48;2.60;;;15.80;72.10;;;;;;4863740;29;20089;-78
2023/03/30 07:09:01;;;;;;;11.93;3.08;;;15.80;72.00;;;;;;4844769;29;20416;-76
2023/03/30 07:11:51;;;;;;;14.00;3.25;;;15.70;72.00;;;;;;4853340;29;20050;-81
2023/03/30 07:14:17;;;;;;;8.57;1.92;;;15.70;72.30;;;;;;4845962;29;20132;-80
2023/03/30 07:16:43;;;;;;;13.25;2.97;;;15.70;72.40;;;;;;4830948;29;20041;-78
2023/03/30 07:19:08;;;;;;;20.95;4.10;;;15.70;72.40;;;;;;4863868;29;20046;-80
2023/03/30 07:22:00;;;;;;;;;;;;;;;;;;;;;
2023/03/30 07:24:30;;;;;;;19.85;3.53;;;15.70;72.70;;;;;;4864168;29;20347;-80
2023/03/30 07:26:56;;;;;;;14.82;3.53;;;15.70;72.80;;;;;;4863416;29;20058;-77
2023/03/30 07:29:22;;;;;;;17.08;3.15;;;15.60;72.80;;;;;;4832592;29;20101;-75
2023/03/30 07:32:31;;;;;;;12.48;2.75;;;15.70;72.90;;;;;;4871703;29;20049;-83
2023/03/30 07:35:33;;;;;;;18.80;3.67;;;15.60;72.90;;;;;;4866004;29;20045;-81
2023/03/30 07:38:01;;;;;;;9.48;2.50;;;15.50;72.70;;;;;;4882729;29;20132;-80
2023/03/30 07:40:27;;;;;;;11.65;2.65;;;15.60;72.90;;;;;;4881870;29;20045;-81
2023/03/30 07:42:52;;;;;;;13.48;2.67;;;15.60;72.80;;;;;;4866570;29;20390;-73
2023/03/30 07:45:24;;;;;;;11.00;3.08;;;15.60;72.70;;;;;;4882642;29;20052;-79
2023/03/30 07:47:56;;;;;;;14.95;3.47;;;15.60;72.60;;;;;;4859044;29;20038;-79
2023/03/30 07:50:40;;;;;;;17.65;3.63;;;15.60;72.60;;;;;;4828111;29;20050;-77
2023/03/30 08:01:19;;;;;;;14.57;3.20;;;15.60;72.40;;;;;;4839907;29;20478;-84
2023/03/30 08:03:48;;;;;;;16.33;3.67;;;15.60;72.40;;;;;;4856743;29;20045;-82
2023/03/30 08:06:45;;;;;;;15.00;3.10;;;15.50;72.40;;;;;;4845929;29;20120;-79
2023/03/30 08:09:32;;;;;;;13.82;3.08;;;15.60;72.30;;;;;;4832460;29;20455;-79
2023/03/30 08:11:59;;;;;;;18.33;3.20;;;15.50;72.20;;;;;;4831474;29;20467;-80
2023/03/30 08:14:26;;;;;;;16.33;3.42;;;15.60;72.10;;;;;;4863345;29;20037;-75
2023/03/30 08:16:59;;;;;;;13.63;3.03;;;15.50;72.00;;;;;;4863957;29;20041;-78
2023/03/30 08:19:25;;;;;;;17.23;3.97;;;15.50;71.80;;;;;;4863191;29;20041;-78
2023/03/30 08:21:51;;;;;;;18.30;3.72;;;15.50;71.80;;;;;;4860746;29;20059;-78
2023/03/30 08:24:17;;;;;;;15.15;3.47;;;15.50;71.80;;;;;;4862416;29;20140;-77
2023/03/30 08:26:43;;;;;;;17.42;3.00;;;15.50;71.80;;;;;;4863043;29;20436;-74
2023/03/30 08:29:09;;;;;;;17.10;4.10;;;15.50;72.10;;;;;;4846800;29;20424;-77
2023/03/30 08:31:36;;;;;;;12.75;3.47;;;15.60;72.20;;;;;;4863447;29;20359;-78
2023/03/30 08:34:03;;;;;;;14.70;3.83;;;15.60;72.10;;;;;;4863225;29;20455;-77
2023/03/30 08:36:30;;;;;;;16.08;3.28;;;15.60;71.70;;;;;;4863572;29;20136;-79
2023/03/30 08:38:56;;;;;;;14.05;2.95;;;15.60;71.50;;;;;;4863311;29;20073;-77
2023/03/30 08:41:38;;;;;;;13.70;3.88;;;15.60;71.60;;;;;;4846745;29;20041;-76
2023/03/30 08:44:35;;;;;;;10.80;2.58;;;15.70;71.60;;;;;;4841356;29;20042;-77
2023/03/30 08:47:05;;;;;;;12.63;2.97;;;15.70;71.20;;;;;;4858824;29;20178;-78
2023/03/30 08:49:41;;;;;;;13.43;3.00;;;15.70;71.00;;;;;;4846708;29;20139;-79
2023/03/30 08:52:21;;;;;;;15.23;3.78;;;15.70;70.80;;;;;;4846750;29;20049;-79
2023/03/30 08:54:47;;;;;;;12.95;3.95;;;15.70;70.70;;;;;;4863270;29;20052;-78
2023/03/30 08:57:46;;;;;;;13.23;3.05;;;15.70;70.50;;;;;;4862857;29;20061;-76
2023/03/30 09:00:47;;;;;;;10.57;2.80;;;15.70;70.30;;;;;;4862772;29;20387;-77
2023/03/30 09:03:33;;;;;;;10.88;2.75;;;15.80;70.20;;;;;;4862741;29;20053;-78
2023/03/30 09:06:30;;;;;;;11.30;2.85;;;15.80;70.30;;;;;;4846445;29;20061;-78
2023/03/30 09:08:56;;;;;;;11.18;2.92;;;15.80;70.10;;;;;;4862649;29;20089;-74
2023/03/30 09:11:30;;;;;;;9.40;2.63;;;15.80;69.90;;;;;;4847275;29;20083;-76
2023/03/30 09:14:00;;;;;;;11.65;3.97;;;15.80;69.70;;;;;;4847191;29;20096;-76
2023/03/30 09:16:41;;;;;;;11.57;3.10;;;15.80;69.90;;;;;;4861661;29;20053;-79
2023/03/30 09:19:16;;;;;;;13.05;2.97;;;15.80;69.50;;;;;;4861620;29;20088;-76
2023/03/30 09:21:43;;;;;;;13.18;3.40;;;15.80;69.50;;;;;;4860046;29;20478;-77
2023/03/30 09:24:15;;;;;;;9.13;2.90;;;15.80;69.60;;;;;;4861680;29;20132;-76
2023/03/30 09:27:04;;;;;;;13.75;3.22;;;15.80;69.40;;;;;;4861894;29;20454;-81
2023/03/30 09:29:38;;;;;;;15.85;3.33;;;15.80;69.30;;;;;;4845906;29;20132;-81
2023/03/30 09:32:10;;;;;;;10.85;3.25;;;15.70;69.40;;;;;;4846375;29;20482;-78
2023/03/30 09:34:48;;;;;;;15.80;4.07;;;15.70;69.20;;;;;;4864004;29;20045;-76
2023/03/30 09:37:17;;;;;;;18.00;4.03;;;15.70;68.70;;;;;;4828045;29;20046;-79
2023/03/30 09:39:47;;;;;;;14.80;3.47;;;15.70;68.30;;;;;;4849080;29;20049;-78
2023/03/30 09:42:32;;;;;;;13.40;3.33;;;15.60;68.20;;;;;;4866365;29;20441;-77
2023/03/30 09:45:16;;;;;;;12.18;2.60;;;15.60;68.40;;;;;;4849852;29;20209;-79
2023/03/30 09:47:42;;;;;;;8.13;2.53;;;15.60;68.80;;;;;;4866064;29;20052;-79
2023/03/30 09:50:16;;;;;;;7.60;1.70;;;15.60;68.80;;;;;;4849214;29;20053;-77
2023/03/30 09:53:01;;;;;;;7.45;1.98;;;15.60;68.80;;;;;;4861115;29;20053;-81
2023/03/30 09:55:32;;;;;;;7.88;2.40;;;15.70;69.00;;;;;;4863124;29;20042;-80
2023/03/30 09:58:28;;;;;;;12.20;2.58;;;15.80;69.00;;;;;;4863994;29;20455;-78
2023/03/30 10:01:03;;;;;;;19.10;2.15;;;15.90;69.00;;;;;;4855465;29;20064;-79
2023/03/30 10:03:28;;;;;;;18.77;3.03;;;16.00;69.00;;;;;;4865038;29;20046;-80
2023/03/30 10:06:01;;;;;;;11.25;1.98;;;16.00;69.10;;;;;;4865144;29;20113;-79
2023/03/30 10:08:27;;;;;;;11.40;3.17;;;16.10;68.90;;;;;;4865565;29;20060;-75
2023/03/30 10:10:55;;;;;;;17.92;3.22;;;16.10;68.90;;;;;;4848782;29;20063;-81
2023/03/30 10:13:30;;;;;;;10.27;2.58;;;16.10;68.90;;;;;;4864437;29;20057;-78
2023/03/30 10:16:03;;;;;;;13.35;2.97;;;16.10;68.80;;;;;;4865092;29;20059;-77
2023/03/30 10:18:47;;;;;;;11.50;2.22;;;16.10;68.70;;;;;;4865705;29;20124;-77
2023/03/30 10:21:14;;;;;;;17.08;2.70;;;16.10;68.60;;;;;;4849110;29;20056;-77
2023/03/30 10:23:43;;;;;;;13.20;2.53;;;16.20;68.80;;;;;;4865340;29;20060;-79
2023/03/30 10:26:18;;;;;;;19.95;3.67;;;16.10;68.80;;;;;;4848237;29;20057;-78
2023/03/30 10:28:54;;;;;;;11.68;2.97;;;16.10;68.90;;;;;;4864650;29;20061;-78
2023/03/30 10:31:21;;;;;;;20.15;3.63;;;16.20;68.90;;;;;;4848678;29;20538;-76
2023/03/30 10:33:48;;;;;;;18.05;4.38;;;16.20;68.90;;;;;;4865423;29;20098;-78
2023/03/30 10:36:15;;;;;;;15.68;3.63;;;16.20;68.80;;;;;;4857716;29;20446;-77
2023/03/30 10:38:44;;;;;;;20.52;4.30;;;16.20;69.30;;;;;;4864568;29;20064;-78
2023/03/30 10:41:19;;;;;;;14.07;3.80;;;16.30;69.30;;;;;;4864743;29;20099;-75
2023/03/30 10:43:48;;;;;;;16.60;3.75;;;16.30;69.50;;;;;;4863898;29;20061;-78
2023/03/30 10:46:16;;;;;;;17.23;3.28;;;16.40;69.50;;;;;;4865136;29;20124;-78
2023/03/30 10:48:53;;;;;;;15.23;3.28;;;16.50;69.50;;;;;;4865130;29;20052;-78
2023/03/30 10:51:43;;;;;;;24.05;3.72;;;16.60;69.50;;;;;;4833291;29;20053;-78
2023/03/30 10:54:26;;;;;;;16.27;3.33;;;16.70;69.60;;;;;;4833619;29;20046;-76
2023/03/30 10:57:16;;;;;;;21.75;4.60;;;16.70;69.60;;;;;;4865605;29;20523;-80
2023/03/30 11:00:11;;;;;;;23.17;4.78;;;16.80;69.70;;;;;;4844244;29;20462;-77
2023/03/30 11:02:55;;;;;;;19.55;3.60;;;16.70;69.60;;;;;;4830501;29;20059;-78
2023/03/30 11:05:31;;;;;;;27.30;5.00;;;16.80;69.70;;;;;;4864436;29;20068;-75
2023/03/30 11:08:03;;;;;;;27.10;4.43;;;16.70;69.70;;;;;;4847912;29;20045;-77
2023/03/30 11:10:37;;;;;;;22.42;4.75;;;16.70;69.10;;;;;;4864457;29;20149;-76
2023/03/30 11:13:11;;;;;;;25.58;4.80;;;16.70;68.80;;;;;;4848012;29;20192;-75
2023/03/30 11:15:48;;;;;;;18.67;4.20;;;16.70;68.90;;;;;;4864165;29;20085;-76
2023/03/30 11:18:20;;;;;;;20.92;4.28;;;16.60;69.00;;;;;;4849249;29;20063;-76
2023/03/30 11:21:07;;;;;;;16.65;3.50;;;16.50;68.90;;;;;;4864481;29;20046;-75
2023/03/30 11:23:32;;;;;;;23.20;5.22;;;16.60;69.20;;;;;;4848136;29;20459;-75
2023/03/30 11:26:02;;;;;;;20.98;4.50;;;16.50;69.30;;;;;;4862718;29;20174;-76
2023/03/30 11:29:04;;;;;;;21.98;4.85;;;16.50;69.30;;;;;;4848677;29;20100;-76
2023/03/30 11:31:56;;;;;;;22.05;4.78;;;16.60;69.30;;;;;;4847786;29;20046;-75
2023/03/30 11:34:46;;;;;;;20.25;4.65;;;16.50;69.30;;;;;;4851624;29;20045;-76
2023/03/30 11:37:20;;;;;;;26.52;5.07;;;16.50;69.30;;;;;;4847423;29;20088;-76
2023/03/30 11:40:17;;;;;;;22.80;5.03;;;16.50;69.30;;;;;;4863787;29;20159;-76
2023/03/30 11:42:46;;;;;;;15.63;4.47;;;16.50;69.50;;;;;;4859448;29;20061;-77
2023/03/30 11:45:35;;;;;;;28.58;5.32;;;16.50;69.50;;;;;;4846559;29;20054;-76
2023/03/30 11:48:19;;;;;;;20.42;4.78;;;16.50;69.30;;;;;;4845856;29;20061;-77
2023/03/30 11:50:59;;;;;;;24.85;5.22;;;16.50;69.30;;;;;;4864825;29;20072;-77
2023/03/30 11:53:53;;;;;;;28.48;5.43;;;16.50;69.40;;;;;;4863435;29;20053;-77
2023/03/30 11:56:19;;;;;;;17.67;4.05;;;16.50;69.30;;;;;;4846490;29;20064;-79
2023/03/30 11:59:07;;;;;;;29.50;4.85;;;16.50;69.20;;;;;;4863805;29;20065;-77
2023/03/30 12:01:39;;;;;;;23.77;5.05;;;16.50;69.10;;;;;;4847184;29;20136;-80
2023/03/30 12:04:10;;;;;;;26.38;5.43;;;16.40;69.10;;;;;;4863873;29;20351;-78
2023/03/30 12:06:53;;;;;;;29.73;5.65;;;16.50;69.40;;;;;;4863474;29;20511;-75
2023/03/30 12:09:34;;;;;;;24.42;5.28;;;16.40;69.60;;;;;;4847117;29;20471;-79
2023/03/30 12:12:17;;;;;;;19.90;4.43;;;16.40;69.50;;;;;;4846414;29;20081;-78
2023/03/30 12:15:01;;;;;;;24.90;4.80;;;16.40;69.70;;;;;;4863092;29;20081;-78
2023/03/30 12:17:44;;;;;;;18.45;4.50;;;16.40;69.70;;;;;;4863224;29;20131;-78
2023/03/30 12:20:25;;;;;;;14.90;5.15;;;16.40;69.60;;;;;;4847384;29;20054;-79
2023/03/30 12:23:27;;;;;;;18.27;4.78;;;16.30;69.40;;;;;;4829725;29;20058;-79
2023/03/30 12:26:02;;;;;;;21.52;4.90;;;16.30;69.00;;;;;;4856075;29;20159;-77
2023/03/30 12:28:57;;;;;;;23.90;4.57;;;16.30;69.10;;;;;;4863000;29;20133;-77
2023/03/30 12:31:46;;;;;;;21.27;4.95;;;16.30;69.10;;;;;;4862846;29;20347;-77
2023/03/30 12:34:11;;;;;;;17.75;4.60;;;16.30;69.20;;;;;;4846809;29;20098;-78
2023/03/30 12:36:45;;;;;;;18.55;4.32;;;16.30;69.20;;;;;;4863474;29;20498;-79
2023/03/30 12:39:29;;;;;;;34.08;6.88;;;16.30;69.10;;;;;;4862155;29;20046;-78
2023/03/30 12:42:04;;;;;;;43.53;9.07;;;16.30;69.00;;;;;;4846744;29;20120;-84
2023/03/30 12:44:48;;;;;;;26.58;5.95;;;16.30;68.90;;;;;;4862765;29;20080;-78
2023/03/30 12:47:35;;;;;;;43.33;6.35;;;16.30;69.10;;;;;;4862836;29;20045;-78
2023/03/30 12:50:07;;;;;;;42.80;7.22;;;16.20;69.40;;;;;;4862930;29;20049;-76
2023/03/30 12:53:17;;;;;;;38.60;6.82;;;16.20;69.70;;;;;;4846173;29;20060;-78
2023/03/30 12:56:03;;;;;;;40.20;6.80;;;16.30;69.70;;;;;;4812478;29;20448;-77
2023/03/30 12:59:03;;;;;;;40.90;7.93;;;16.20;69.50;;;;;;4862743;29;20060;-79
2023/03/30 13:01:50;;;;;;;33.10;7.00;;;16.20;69.50;;;;;;4846220;29;20041;-80
2023/03/30 13:04:19;;;;;;;31.30;6.38;;;16.20;69.50;;;;;;4862219;29;20064;-80
2023/03/30 13:06:52;;;;;;;35.78;8.02;;;16.20;69.50;;;;;;4853243;29;20050;-77
2023/03/30 13:09:26;;;;;;;31.65;6.30;;;16.20;69.50;;;;;;4847309;29;20041;-78
2023/03/30 13:11:52;;;;;;;25.38;6.28;;;16.20;69.00;;;;;;4862822;29;20093;-77
2023/03/30 13:14:44;;;;;;;32.67;7.45;;;16.20;68.50;;;;;;4862557;29;20391;-81
2023/03/30 13:17:19;;;;;;;25.88;5.78;;;16.20;68.50;;;;;;4846199;29;20053;-78
2023/03/30 13:19:47;;;;;;;29.65;5.85;;;16.20;68.60;;;;;;4846762;29;20064;-78
2023/03/30 13:22:14;;;;;;;29.23;5.95;;;16.20;68.70;;;;;;4862396;29;20061;-78
2023/03/30 13:25:16;;;;;;;22.08;5.47;;;16.20;68.80;;;;;;4861983;29;20120;-79
2023/03/30 13:27:42;;;;;;;22.98;5.22;;;16.20;68.70;;;;;;4860216;29;20089;-79
2023/03/30 13:30:14;;;;;;;23.85;6.78;;;16.20;68.90;;;;;;4862203;29;20073;-78
2023/03/30 13:33:03;;;;;;;26.02;5.32;;;16.10;68.80;;;;;;4859671;29;20124;-79
2023/03/30 13:35:38;;;;;;;27.70;6.05;;;16.10;68.80;;;;;;4852527;29;20411;-79
2023/03/30 13:38:29;;;;;;;22.80;5.30;;;16.20;68.90;;;;;;4862258;29;20466;-78
2023/03/30 13:41:07;;;;;;;27.38;5.88;;;16.10;68.70;;;;;;4828344;29;20145;-79
2023/03/30 13:43:49;;;;;;;19.15;4.18;;;16.10;68.70;;;;;;4828819;29;20065;-79
2023/03/30 13:46:24;;;;;;;24.27;5.63;;;16.10;68.60;;;;;;4862290;29;20387;-80
2023/03/30 13:48:54;;;;;;;24.55;6.00;;;16.20;68.70;;;;;;4861896;29;20080;-79
2023/03/30 13:51:26;;;;;;;26.75;5.53;;;16.10;68.70;;;;;;4841153;29;20037;-76
2023/03/30 13:54:03;;;;;;;24.50;5.40;;;16.10;70.10;;;;;;4859945;29;20500;-78
2023/03/30 13:56:34;;;;;;;22.90;4.63;;;16.20;70.30;;;;;;4842964;29;20049;-79
2023/03/30 13:59:13;;;;;;;21.00;5.03;;;16.20;69.70;;;;;;4862395;29;20057;-79
2023/03/30 14:01:39;;;;;;;23.20;5.97;;;16.30;69.20;;;;;;4862005;29;20201;-78
2023/03/30 14:04:15;;;;;;;27.88;5.55;;;16.20;69.00;;;;;;4862153;29;20060;-78
2023/03/30 14:06:45;;;;;;;22.80;5.60;;;16.20;68.90;;;;;;4861066;29;20431;-80
2023/03/30 14:09:25;;;;;;;25.33;6.18;;;16.20;68.90;;;;;;4861583;29;20053;-78
2023/03/30 14:11:52;;;;;;;26.92;4.57;;;16.30;69.60;;;;;;4860591;29;20117;-78
2023/03/30 14:14:34;;;;;;;30.05;5.60;;;16.30;69.40;;;;;;4862348;29;20371;-79
2023/03/30 14:17:03;;;;;;;23.85;6.07;;;16.30;69.20;;;;;;4823082;29;20053;-81
2023/03/30 14:19:35;;;;;;;23.38;5.63;;;16.20;69.10;;;;;;4846838;29;20061;-79
2023/03/30 14:22:23;;;;;;;24.05;5.65;;;16.20;68.90;;;;;;4819686;29;20050;-79
2023/03/30 14:24:58;;;;;;;23.65;4.80;;;16.20;68.80;;;;;;4848533;29;20157;-79
2023/03/30 14:27:24;;;;;;;22.17;4.90;;;16.20;68.80;;;;;;4865121;29;20064;-78
2023/03/30 14:29:51;;;;;;;17.02;4.85;;;16.20;68.70;;;;;;4864981;29;20053;-78
2023/03/30 14:32:21;;;;;;;20.45;5.05;;;16.20;68.70;;;;;;4848586;29;20112;-77
2023/03/30 14:34:52;;;;;;;20.45;5.50;;;16.20;68.60;;;;;;4848931;29;20068;-77
2023/03/30 14:37:21;;;;;;;17.08;4.43;;;16.20;68.50;;;;;;4848704;29;20136;-79
2023/03/30 14:39:53;;;;;;;14.70;4.75;;;16.20;68.50;;;;;;4849483;29;20054;-77
2023/03/30 14:42:20;;;;;;;23.52;5.05;;;16.20;68.40;;;;;;4865844;29;20084;-79
2023/03/30 14:44:52;;;;;;;18.13;5.05;;;16.10;68.20;;;;;;4865420;29;20045;-79
2023/03/30 14:47:21;;;;;;;20.90;4.80;;;16.10;68.20;;;;;;4834376;29;20158;-81
2023/03/30 14:49:50;;;;;;;17.33;4.97;;;16.10;68.20;;;;;;4870756;29;20056;-80
2023/03/30 14:52:19;;;;;;;18.45;5.53;;;16.10;68.20;;;;;;4849259;29;20049;-79
2023/03/30 14:54:49;;;;;;;16.77;5.03;;;16.10;68.20;;;;;;4864584;29;20064;-80
2023/03/30 14:57:16;;;;;;;16.90;4.45;;;16.10;68.20;;;;;;4848625;29;20057;-79
2023/03/30 14:59:50;;;;;;;18.70;5.05;;;16.10;68.10;;;;;;4865082;29;20121;-78
2023/03/30 15:02:29;;;;;;;21.58;5.18;;;16.10;68.10;;;;;;4864029;29;20049;-75
2023/03/30 15:04:56;;;;;;;23.10;5.28;;;16.10;68.20;;;;;;4834734;29;20041;-80
2023/03/30 15:07:27;;;;;;;22.25;6.53;;;16.00;68.30;;;;;;4848367;29;20340;-79
2023/03/30 15:09:57;;;;;;;18.80;5.43;;;16.00;68.40;;;;;;4833088;29;20128;-79
2023/03/30 15:12:37;;;;;;;18.75;5.18;;;16.00;68.50;;;;;;4864818;29;20073;-80
2023/03/30 15:15:06;;;;;;;21.35;5.15;;;16.00;68.70;;;;;;4832787;29;20045;-76
2023/03/30 15:17:33;;;;;;;16.35;4.22;;;16.00;68.90;;;;;;4864686;29;20359;-79
2023/03/30 15:20:07;;;;;;;15.07;4.20;;;16.00;68.70;;;;;;4864421;29;20346;-80
2023/03/30 15:22:36;;;;;;;16.75;4.85;;;16.00;68.60;;;;;;4847991;29;20037;-80
2023/03/30 15:25:10;;;;;;;19.65;5.13;;;16.00;68.70;;;;;;4863809;29;20426;-79
2023/03/30 15:27:38;;;;;;;18.65;4.32;;;16.10;69.00;;;;;;4864263;29;20060;-80
2023/03/30 15:30:05;;;;;;;19.05;6.20;;;16.20;69.30;;;;;;4834280;29;20078;-78
2023/03/30 15:32:38;;;;;;;19.02;4.68;;;16.20;69.30;;;;;;4862434;29;20087;-78
2023/03/30 15:35:12;;;;;;;22.43;5.10;;;16.20;69.40;;;;;;4864153;29;20107;-78
2023/03/30 15:37:49;;;;;;;26.50;5.95;;;16.30;69.80;;;;;;4847386;29;20129;-78
2023/03/30 15:40:39;;;;;;;23.00;5.72;;;16.30;70.10;;;;;;4847624;29;20494;-78
2023/03/30 15:43:18;;;;;;;25.23;6.13;;;16.30;69.90;;;;;;4864297;29;20374;-80
2023/03/30 15:46:00;;;;;;;27.33;6.28;;;16.40;70.90;;;;;;4863217;29;20045;-80
2023/03/30 15:48:50;;;;;;;26.50;5.85;;;16.40;71.10;;;;;;4863666;29;20366;-76
2023/03/30 15:54:43;;;;;;;21.90;5.55;;;16.50;72.10;;;;;;4841988;29;20136;-81
2023/03/30 15:57:11;;;;;;;29.77;6.03;;;16.50;72.30;;;;;;4873252;29;20072;-81
2023/03/30 15:59:45;;;;;;;26.25;6.28;;;16.50;72.70;;;;;;4848103;29;20064;-82
2023/03/30 16:02:35;;;;;;;25.98;7.05;;;16.60;73.20;;;;;;4856954;29;20050;-80
2023/03/30 16:05:08;;;;;;;33.80;6.80;;;16.60;73.40;;;;;;4829235;29;20038;-77
2023/03/30 16:07:40;;;;;;;28.85;6.20;;;16.60;73.50;;;;;;4843899;29;20045;-77
2023/03/30 16:10:11;;;;;;;33.58;6.90;;;16.60;73.60;;;;;;4828701;29;20061;-81
2023/03/30 16:12:40;;;;;;;32.75;6.57;;;16.60;73.80;;;;;;4844378;29;20103;-80
2023/03/30 16:15:15;;;;;;;33.97;7.00;;;16.60;73.80;;;;;;4829012;29;20059;-78
2023/03/30 16:17:41;;;;;;;28.55;6.65;;;16.60;73.80;;;;;;4845155;29;20110;-78
2023/03/30 16:20:17;;;;;;;34.25;6.93;;;16.60;73.60;;;;;;4844122;29;20137;-77
2023/03/30 16:22:44;;;;;;;38.85;6.90;;;16.60;73.50;;;;;;4844984;29;20081;-77
2023/03/30 16:25:10;;;;;;;43.17;7.95;;;16.60;73.50;;;;;;4844800;29;20371;-80
2023/03/30 16:27:36;;;;;;;31.77;7.15;;;16.50;73.40;;;;;;4845012;29;20128;-78
2023/03/30 16:30:25;;;;;;;35.45;5.93;;;16.60;73.50;;;;;;4859235;29;20053;-78
2023/03/30 16:32:51;;;;;;;43.88;7.18;;;16.50;73.60;;;;;;4873491;29;20041;-80
2023/03/30 16:35:17;;;;;;;32.25;7.25;;;16.50;73.70;;;;;;4870530;29;20457;-78
2023/03/30 16:37:43;;;;;;;36.55;7.38;;;16.50;73.80;;;;;;4862720;29;20068;-80
2023/03/30 16:40:22;;;;;;;38.65;6.75;;;16.50;73.70;;;;;;4846608;29;20462;-78
2023/03/30 16:42:48;;;;;;;30.92;5.60;;;16.50;73.70;;;;;;4862512;29;20029;-78
2023/03/30 16:45:14;;;;;;;32.80;6.95;;;16.50;73.60;;;;;;4846798;29;20486;-79
2023/03/30 16:47:39;;;;;;;27.60;6.55;;;16.50;73.60;;;;;;4863005;29;20105;-80
2023/03/30 16:50:19;;;;;;;26.50;6.07;;;16.50;73.50;;;;;;4846771;29;20113;-77
2023/03/30 16:52:44;;;;;;;27.67;6.00;;;16.50;73.50;;;;;;4862722;29;20053;-76
2023/03/30 16:55:11;;;;;;;23.00;5.70;;;16.50;73.50;;;;;;4863179;29;20399;-77
2023/03/30 16:57:37;;;;;;;33.67;6.05;;;16.40;73.40;;;;;;4846590;29;20546;-77
2023/03/30 17:00:15;;;;;;;28.02;5.70;;;16.40;73.30;;;;;;4863575;29;20089;-78
2023/03/30 17:02:40;;;;;;;36.13;5.53;;;16.50;73.40;;;;;;4862625;29;20052;-77
2023/03/30 17:05:06;;;;;;;29.60;5.70;;;16.40;73.30;;;;;;4862923;29;20435;-78
2023/03/30 17:07:35;;;;;;;24.63;4.80;;;16.40;73.20;;;;;;4863026;29;20458;-78
2023/03/30 17:10:23;;;;;;;25.73;5.88;;;16.40;73.10;;;;;;4862983;29;20157;-77
2023/03/30 17:12:50;;;;;;;19.73;5.03;;;16.40;72.90;;;;;;4862116;29;20391;-78
2023/03/30 17:15:16;;;;;;;26.20;6.07;;;16.40;72.70;;;;;;4846678;29;20049;-78
2023/03/30 17:17:41;;;;;;;21.63;4.85;;;16.40;72.50;;;;;;4846454;29;20064;-79
2023/03/30 17:20:37;;;;;;;17.00;5.15;;;16.40;72.30;;;;;;4862952;29;20084;-79
2023/03/30 17:23:04;;;;;;;28.55;6.65;;;16.40;72.10;;;;;;4850529;29;20057;-77
2023/03/30 17:25:30;;;;;;;19.25;4.93;;;16.30;72.00;;;;;;4846515;29;20088;-79
2023/03/30 17:27:56;;;;;;;26.00;5.85;;;16.30;71.90;;;;;;4862697;29;20128;-79
2023/03/30 17:30:33;;;;;;;20.48;6.13;;;16.30;71.70;;;;;;4862835;29;20172;-79
2023/03/30 17:32:59;;;;;;;20.35;5.43;;;16.30;71.60;;;;;;4831867;29;20052;-79
2023/03/30 17:35:25;;;;;;;19.42;4.93;;;16.40;71.60;;;;;;4862585;29;20049;-78
2023/03/30 17:37:52;;;;;;;19.25;4.95;;;16.30;71.40;;;;;;4846258;29;20053;-78
2023/03/30 17:40:26;;;;;;;21.77;5.97;;;16.30;71.20;;;;;;4846423;29;20463;-79
2023/03/30 17:42:53;;;;;;;18.75;4.90;;;16.30;71.10;;;;;;4862755;29;20469;-80
2023/03/30 17:45:22;;;;;;;16.45;4.65;;;16.30;70.90;;;;;;4862158;29;20379;-78
2023/03/30 17:47:48;;;;;;;16.95;4.20;;;16.30;70.70;;;;;;4846163;29;20060;-79
2023/03/30 17:50:29;;;;;;;17.20;5.18;;;16.30;70.60;;;;;;4831934;29;20359;-80
2023/03/30 17:52:57;;;;;;;23.85;5.50;;;16.30;70.40;;;;;;4846142;29;20049;-78
2023/03/30 17:55:25;;;;;;;25.67;6.57;;;16.40;68.30;;;;;;4845035;29;20061;-79
2023/03/30 17:57:51;;;;;;;28.17;6.45;;;16.30;66.80;;;;;;4847689;29;20384;-78
2023/03/30 18:00:29;;;;;;;27.33;6.70;;;16.10;66.60;;;;;;4859812;29;20057;-80
2023/03/30 18:02:55;;;;;;;25.63;7.18;;;16.00;66.80;;;;;;4865870;29;20056;-79
2023/03/30 18:05:25;;;;;;;23.17;6.32;;;15.80;67.00;;;;;;4849933;29;20257;-81
2023/03/30 18:07:52;;;;;;;30.83;6.75;;;15.70;67.80;;;;;;4865554;29;20087;-79
2023/03/30 18:10:27;;;;;;;28.70;7.40;;;15.60;68.70;;;;;;4849122;29;20057;-79
2023/03/30 18:12:54;;;;;;;25.20;6.22;;;15.60;69.10;;;;;;4865418;29;20050;-80
2023/03/30 18:15:26;;;;;;;25.77;6.38;;;15.60;69.30;;;;;;4865507;29;20490;-80
2023/03/30 18:17:53;;;;;;;30.15;5.60;;;15.70;69.50;;;;;;4830678;29;20057;-78
2023/03/30 18:20:29;;;;;;;39.22;6.55;;;15.80;70.00;;;;;;4845984;29;20497;-78
2023/03/30 18:22:55;;;;;;;21.98;4.88;;;15.80;70.20;;;;;;4847176;29;20046;-80
2023/03/30 18:25:21;;;;;;;26.88;6.63;;;15.80;70.10;;;;;;4830339;29;20057;-79
2023/03/30 18:27:48;;;;;;;29.67;6.57;;;15.90;69.80;;;;;;4864979;29;20064;-81
2023/03/30 18:30:28;;;;;;;26.42;5.85;;;15.90;69.20;;;;;;4849120;29;20352;-81
2023/03/30 18:32:55;;;;;;;20.23;6.50;;;15.90;68.60;;;;;;4863159;29;20045;-80
2023/03/30 18:35:24;;;;;;;22.10;6.35;;;15.90;68.30;;;;;;4864373;29;20049;-81
2023/03/30 18:37:54;;;;;;;27.08;5.60;;;15.80;68.00;;;;;;4849931;29;20060;-81
2023/03/30 18:40:57;;;;;;;22.88;5.32;;;15.80;68.20;;;;;;4846267;29;20041;-80
2023/03/30 18:43:23;;;;;;;23.90;5.97;;;15.80;68.50;;;;;;4862033;29;20116;-78
2023/03/30 18:45:49;;;;;;;23.52;5.93;;;15.80;68.70;;;;;;4865148;29;20049;-79
2023/03/30 18:48:19;;;;;;;23.52;5.57;;;15.80;68.90;;;;;;4864929;29;20389;-77
2023/03/30 18:50:53;;;;;;;20.75;5.25;;;15.80;69.00;;;;;;4864700;29;20061;-78
2023/03/30 18:53:21;;;;;;;18.52;5.38;;;15.80;69.10;;;;;;4865441;29;20045;-80